Chicago, IL

7:27 AM CST en Febrero 20, 2017 (GMT -0600)
George Street | | Change Station
Aviso en curso: Small Craft Advisory

Alt 656 ft 41.94 °N, 87.88 °W | Updated 1 minute ago

Mostly Cloudy
Muy nublado
46.0 ° F
Sensación térmica 46 ° F
N
1.2
Viento Variable Viento desde Sur
Gusts 3.1 mph

Hoy
Alta -- | Baja -- ° F
--% Posibilidad de precipitaciones
Ayer
Alta -- | Baja -- ° F
Precip. -- pul
Presión 30.14 pul
Visibilidad 3.0 Millas
Nubes Baja 19000 ft
Muy nublado 25000 ft
Vientos helados 46 ° F
Punto de rocío 39 ° F
Humedad 75%
Precipitaciones 0.00 pul
Espesor de la nieve No disponible.
6:39 AM 5:31 PM
Creciente menguante, 34% visible
METAR KORD 201251Z 14007KT 3SM BR FEW190 BKN250 07/06 A3013 RMK AO2 SLP204 T00670056
Presión 30.14 pul
Visibilidad 3.0 Millas
Nubes Baja 19000 ft
Muy nublado 25000 ft
Vientos helados 46 ° F
Punto de rocío 39 ° F
Humedad 75%
Precipitaciones 0.00 pul
Espesor de la nieve No disponible.
6:39 AM 5:31 PM
Creciente menguante, 34% visible
METAR KORD 201251Z 14007KT 3SM BR FEW190 BKN250 07/06 A3013 RMK AO2 SLP204 T00670056

Get Your Daily Forecast Email!

Thanks for signing up!

Be on the lookout for a verification email in your inbox.

You'll start receiving the daily forecast at 8 AM.

×

10-Day Weather Forecast

Almanac

Astronomía

Feb. 20, 2017 Salida Puesta
Hora real
Crepúsculo civil
Crepúsculo náutico
Crepúsculo astronómico
Luna
Horas de luz
Horas de luz
Tomorrow will be .
, % of the Moon is Illuminated

Extremos de hoy

Máximos del estado Bajos del estado

Community

WunderPhotos

Upload Photos

1,962,540 ¡fotos cargadas!

WunderBlog® & News

Nearby

Calidad del aire

  Calidad del aire Índice AQ Contaminante
Not available.

Grosos de nieve

Estación Profundido Altura

Actividad de terremotos

Ciudad Distance Mag. Tiempo y dato
Magnitud mínima muestra es 2,5.

Temperaturas de aguas costeras

Lugar Temperatura

Stations

Estaciones meteorológicas cercanas

Ubicación de la estación Temp. Vientos helados Punto de rocío Humedad Viento Precip. Alt Actualizado Tipo
                   

Watches & Warnings

Small Craft Advisory
Issued: 3:06 AM CST Feb. 20, 2017 – National Weather Service

... Small Craft Advisory in effect from noon today to 3 am CST
Tuesday...

The National Weather Service in Chicago has issued a Small Craft
Advisory, which is in effect from noon today to 3 am CST Tuesday.

* Winds... south 20 to 25 kt.

* Significant waves... to 5 ft for IL... to 3 ft for Indiana.

* Occasional waves... to 7 ft for IL.

Precautionary/preparedness actions...

A Small Craft Advisory means that wind speeds of 21 to 33 knots
are expected to produce hazardous wave conditions to small craft.
Inexperienced mariners... especially those operating smaller
vessels should avoid navigating in these conditions.




Jee